Maersk Iowa — KABL — position and weather

sailwx.info

Track history (hours):
 
Tides and Currents Weather Stations Pressure Air Temp Water Temp Dewpoint Dewpoint Depression Visibility Wind Speed Wind Dir Waves Ship Positions

Maersk Iowa

More information available from US FCC via Universal Licensing System and Coast Guard Vessel Documentation Center.

Last reported at 2014-Sep-03 00:14 UTC. Time now 2014-Sep-03 07:11 UTC.
Position N 36°51' W 075°51'.

Length 292 m; draft 11 m.

Type: Ship. MMSI: 367606000.

Date/timePositionNaut miles runAvg speedWind from/ knotsBaromVisibWave heightAir tempDewpointWater temp
2014-Sep-03 00:14N 36°51' W 075°51'913.3
2014-Sep-02 23:33N 36°57' W 075°60'1413.8
2014-Sep-02 22:32N 37°00' W 076°17'8 8.1
2014-Sep-02 21:33N 36°53' W 076°21'0 0.0
2014-Sep-02 20:33N 36°53' W 076°21'0 0.0
2014-Sep-02 19:33N 36°53' W 076°21'0 0.0
2014-Sep-02 18:33N 36°53' W 076°21'0 0.0
2014-Sep-02 17:24N 36°53' W 076°21'0 0.0
2014-Sep-02 15:30N 36°53' W 076°21'0 0.0
2014-Sep-02 11:04N 36°53' W 076°21'0 0.4
2014-Sep-02 10:12N 36°53' W 076°21'5 6.3
2014-Sep-02 09:28N 36°57' W 076°20'1112.0
2014-Sep-02 08:32N 36°58' W 076°06'1111.4
2014-Sep-02 07:33N 36°54' W 075°54'10 9.4
2014-Sep-02 06:29N 36°49' W 075°43'1313.5
2014-Sep-02 05:32N 36°49' W 075°27'6112.3
2014-Sep-02 00:33N 37°25' W 074°25'712.2
2014-Sep-02 00:00N 37°30' W 074°18'1119.2 190 / 181015.5 5.4 2.027.025.626.9
2014-Sep-01 23:24N 37°41' W 074°21'7513.8
2014-Sep-01 18:00N 38°54' W 074°00'4015.5 180 / 81018.3 5.4 1.027.224.824.3
2014-Sep-01 15:26N 39°33' W 073°53'1415.6
2014-Sep-01 14:33N 39°47' W 073°53'1615.8
2014-Sep-01 13:32N 40°03' W 073°52'1615.5
2014-Sep-01 12:32N 40°19' W 073°50'1110.8
2014-Sep-01 11:33N 40°29' W 073°54'1313.5
2014-Sep-01 10:34N 40°39' W 074°05'3 2.7
2014-Sep-01 09:34N 40°40' W 074°09'0 0.0
2014-Sep-01 08:33N 40°40' W 074°09'0 0.0
2014-Sep-01 07:33N 40°40' W 074°09'0 0.0
2014-Sep-01 06:33N 40°40' W 074°09'0 0.0
2014-Sep-01 05:33N 40°40' W 074°09'0 0.0
2014-Sep-01 04:33N 40°40' W 074°09'0 0.0
2014-Sep-01 03:33N 40°40' W 074°09'0 0.0
2014-Sep-01 02:33N 40°40' W 074°09'0 0.0
2014-Sep-01 01:33N 40°40' W 074°09'0 0.0
2014-Sep-01 00:33N 40°40' W 074°09'0 0.0
2014-Aug-31 22:08N 40°40' W 074°09'0 0.0
2014-Aug-31 21:30N 40°40' W 074°09'3 3.0
2014-Aug-31 20:33N 40°39' W 074°05'7 7.6
2014-Aug-31 19:33N 40°32' W 074°01'1312.7
2014-Aug-31 18:33N 40°27' W 073°46'1713.3
2014-Aug-31 17:19N 40°28' W 073°24'1011.7
2014-Aug-31 16:28N 40°29' W 073°11'1111.9
2014-Aug-31 15:32N 40°30' W 072°57'1313.5
2014-Aug-31 14:32N 40°31' W 072°39'1313.4
2014-Aug-31 13:33N 40°31' W 072°22'1413.5
2014-Aug-31 12:33N 40°31' W 072°04'1414.4
2014-Aug-31 11:33N 40°31' W 071°45'1515.4
2014-Aug-31 10:33N 40°32' W 071°25'1615.5
2014-Aug-31 09:33N 40°32' W 071°04'1515.4
2014-Aug-31 08:33N 40°33' W 070°44'1515.3
2014-Aug-31 07:33N 40°33' W 070°24'1515.2
2014-Aug-31 06:33N 40°33' W 070°04'1322.6
2014-Aug-31 06:00N 40°30' W 069°48'4 9.9 010 / 61023.110.8 1.019.014.018.7
2014-Aug-31 05:33N 40°33' W 069°45'1515.0
2014-Aug-31 04:33N 40°34' W 069°25'1515.2
2014-Aug-31 03:33N 40°34' W 069°05'1615.9
2014-Aug-31 02:33N 40°35' W 068°44'1616.0
2014-Aug-31 01:33N 40°40' W 068°24'1616.5
2014-Aug-31 00:33N 40°46' W 068°04'1716.3
2014-Aug-30 23:30N 40°52' W 067°43'17815.5
2014-Aug-30 12:00N 41°54' W 064°00'9215.3 070 / 111026.0 5.4 1.020.010.922.5
2014-Aug-30 06:00N 42°30' W 062°06'44016.3 340 / 121024.310.8 2.517.113.424.1
2014-Aug-29 03:00N 45°30' W 052°48'5719.1 190 / 201001.2 2.2 2.019.019.019.0
2014-Aug-29 00:00N 45°48' W 051°30'24120.1 230 / 201005.2 5.4 2.018.016.318.3
2014-Aug-28 12:00N 46°54' W 045°54'12120.1 240 / 181010.210.8 1.018.014.616.4
2014-Aug-28 06:00N 47°18' W 043°00'63617.7 200 / 181016.010.8 2.515.011.316.0
2014-Aug-26 18:00N 51°00' W 027°48'43718.2 270 / 91005.010.8 1.017.013.517.0
2014-Aug-25 18:00N 55°18' W 018°00'21618.0 030 / 261004.0 5.4 2.020.013.018.0
2014-Aug-25 06:00N 57°06' W 012°24'10217.0 090 / 291004.0 5.4 3.015.011.314.8
2014-Aug-25 00:00N 57°54' W 009°36'10018.0 999 / 41012.010.8 0.513.0 9.111.0
2014-Aug-24 18:25N 58°36' W 006°43'1517.2
2014-Aug-24 17:34N 58°42' W 006°18'1717.0
2014-Aug-24 16:34N 58°42' W 005°45'5518.0
2014-Aug-24 13:31N 58°43' W 003°60'1818.0
2014-Aug-24 12:30N 58°43' W 003°24'1516.4
2014-Aug-24 11:34N 58°38' W 002°56'6416.1
2014-Aug-24 07:34N 57°54' W 001°28'1717.0
2014-Aug-24 06:33N 57°42' W 001°04'1817.0
2014-Aug-24 05:30N 57°30' W 000°39'  
Track history (hours):
 
Tides and Currents Weather Stations Pressure Air Temp Water Temp Dewpoint Dewpoint Depression Visibility Wind Speed Wind Dir Waves Ship Positions

Maersk Iowa

More information available from US FCC via Universal Licensing System and Coast Guard Vessel Documentation Center.

Last reported at 2014-Sep-03 00:14 UTC. Time now 2014-Sep-03 07:11 UTC.
Position N 36°51' W 075°51'.

Length 292 m; draft 11 m.

Type: Ship. MMSI: 367606000.

Date/timePositionNaut miles runAvg speedWind from/ knotsBaromVisibWave heightAir tempDewpointWater temp
2014-Sep-03 00:14N 36°51' W 075°51'913.3
2014-Sep-02 23:33N 36°57' W 075°60'1413.8
2014-Sep-02 22:32N 37°00' W 076°17'8 8.1
2014-Sep-02 21:33N 36°53' W 076°21'0 0.0
2014-Sep-02 20:33N 36°53' W 076°21'0 0.0
2014-Sep-02 19:33N 36°53' W 076°21'0 0.0
2014-Sep-02 18:33N 36°53' W 076°21'0 0.0
2014-Sep-02 17:24N 36°53' W 076°21'0 0.0
2014-Sep-02 15:30N 36°53' W 076°21'0 0.0
2014-Sep-02 11:04N 36°53' W 076°21'0 0.4
2014-Sep-02 10:12N 36°53' W 076°21'5 6.3
2014-Sep-02 09:28N 36°57' W 076°20'1112.0
2014-Sep-02 08:32N 36°58' W 076°06'1111.4
2014-Sep-02 07:33N 36°54' W 075°54'10 9.4
2014-Sep-02 06:29N 36°49' W 075°43'1313.5
2014-Sep-02 05:32N 36°49' W 075°27'6112.3
2014-Sep-02 00:33N 37°25' W 074°25'712.2
2014-Sep-02 00:00N 37°30' W 074°18'1119.2 190 / 181015.5 5.4 2.027.025.626.9
2014-Sep-01 23:24N 37°41' W 074°21'7513.8
2014-Sep-01 18:00N 38°54' W 074°00'4015.5 180 / 81018.3 5.4 1.027.224.824.3
2014-Sep-01 15:26N 39°33' W 073°53'1415.6
2014-Sep-01 14:33N 39°47' W 073°53'1615.8
2014-Sep-01 13:32N 40°03' W 073°52'1615.5
2014-Sep-01 12:32N 40°19' W 073°50'1110.8
2014-Sep-01 11:33N 40°29' W 073°54'1313.5
2014-Sep-01 10:34N 40°39' W 074°05'3 2.7
2014-Sep-01 09:34N 40°40' W 074°09'0 0.0
2014-Sep-01 08:33N 40°40' W 074°09'0 0.0
2014-Sep-01 07:33N 40°40' W 074°09'0 0.0
2014-Sep-01 06:33N 40°40' W 074°09'0 0.0
2014-Sep-01 05:33N 40°40' W 074°09'0 0.0
2014-Sep-01 04:33N 40°40' W 074°09'0 0.0
2014-Sep-01 03:33N 40°40' W 074°09'0 0.0
2014-Sep-01 02:33N 40°40' W 074°09'0 0.0
2014-Sep-01 01:33N 40°40' W 074°09'0 0.0
2014-Sep-01 00:33N 40°40' W 074°09'0 0.0
2014-Aug-31 22:08N 40°40' W 074°09'0 0.0
2014-Aug-31 21:30N 40°40' W 074°09'3 3.0
2014-Aug-31 20:33N 40°39' W 074°05'7 7.6
2014-Aug-31 19:33N 40°32' W 074°01'1312.7
2014-Aug-31 18:33N 40°27' W 073°46'1713.3
2014-Aug-31 17:19N 40°28' W 073°24'1011.7
2014-Aug-31 16:28N 40°29' W 073°11'1111.9
2014-Aug-31 15:32N 40°30' W 072°57'1313.5
2014-Aug-31 14:32N 40°31' W 072°39'1313.4
2014-Aug-31 13:33N 40°31' W 072°22'1413.5
2014-Aug-31 12:33N 40°31' W 072°04'1414.4
2014-Aug-31 11:33N 40°31' W 071°45'1515.4
2014-Aug-31 10:33N 40°32' W 071°25'1615.5
2014-Aug-31 09:33N 40°32' W 071°04'1515.4
2014-Aug-31 08:33N 40°33' W 070°44'1515.3
2014-Aug-31 07:33N 40°33' W 070°24'1515.2
2014-Aug-31 06:33N 40°33' W 070°04'1322.6
2014-Aug-31 06:00N 40°30' W 069°48'4 9.9 010 / 61023.110.8 1.019.014.018.7
2014-Aug-31 05:33N 40°33' W 069°45'1515.0
2014-Aug-31 04:33N 40°34' W 069°25'1515.2
2014-Aug-31 03:33N 40°34' W 069°05'1615.9
2014-Aug-31 02:33N 40°35' W 068°44'1616.0
2014-Aug-31 01:33N 40°40' W 068°24'1616.5
2014-Aug-31 00:33N 40°46' W 068°04'1716.3
2014-Aug-30 23:30N 40°52' W 067°43'17815.5
2014-Aug-30 12:00N 41°54' W 064°00'9215.3 070 / 111026.0 5.4 1.020.010.922.5
2014-Aug-30 06:00N 42°30' W 062°06'44016.3 340 / 121024.310.8 2.517.113.424.1
2014-Aug-29 03:00N 45°30' W 052°48'5719.1 190 / 201001.2 2.2 2.019.019.019.0
2014-Aug-29 00:00N 45°48' W 051°30'24120.1 230 / 201005.2 5.4 2.018.016.318.3
2014-Aug-28 12:00N 46°54' W 045°54'12120.1 240 / 181010.210.8 1.018.014.616.4
2014-Aug-28 06:00N 47°18' W 043°00'63617.7 200 / 181016.010.8 2.515.011.316.0
2014-Aug-26 18:00N 51°00' W 027°48'43718.2 270 / 91005.010.8 1.017.013.517.0
2014-Aug-25 18:00N 55°18' W 018°00'21618.0 030 / 261004.0 5.4 2.020.013.018.0
2014-Aug-25 06:00N 57°06' W 012°24'10217.0 090 / 291004.0 5.4 3.015.011.314.8
2014-Aug-25 00:00N 57°54' W 009°36'10018.0 999 / 41012.010.8 0.513.0 9.111.0
2014-Aug-24 18:25N 58°36' W 006°43'1517.2
2014-Aug-24 17:34N 58°42' W 006°18'1717.0
2014-Aug-24 16:34N 58°42' W 005°45'5518.0
2014-Aug-24 13:31N 58°43' W 003°60'1818.0
2014-Aug-24 12:30N 58°43' W 003°24'1516.4
2014-Aug-24 11:34N 58°38' W 002°56'6416.1
2014-Aug-24 07:34N 57°54' W 001°28'1717.0
2014-Aug-24 06:33N 57°42' W 001°04'1817.0
2014-Aug-24 05:30N 57°30' W 000°39'  

Dump ship's entire track history